createdAt,value
2023-04-25T00:01:27.357Z,100.00
2023-04-25T00:03:56.702Z,100.00
2023-04-25T00:06:27.486Z,100.00
2023-04-25T00:08:57.885Z,100.00
2023-04-25T00:11:26.563Z,100.00
2023-04-25T00:13:55.389Z,100.00
2023-04-25T00:16:24.904Z,100.00
2023-04-25T00:18:54.820Z,100.00
2023-04-25T00:21:25.373Z,100.00
2023-04-25T00:23:54.499Z,100.00
2023-04-25T00:26:24.146Z,100.00
2023-04-25T00:28:52.747Z,100.00
2023-04-25T00:31:21.522Z,100.00
2023-04-25T00:33:50.742Z,100.00
2023-04-25T00:36:19.636Z,100.00
2023-04-25T00:38:48.289Z,100.00
2023-04-25T00:41:17.019Z,100.00
2023-04-25T00:43:48.279Z,100.00
2023-04-25T00:46:17.134Z,100.00
2023-04-25T00:48:46.449Z,100.00
2023-04-25T00:51:21.155Z,100.00
2023-04-25T00:53:51.158Z,100.00
2023-04-25T00:56:20.941Z,100.00
2023-04-25T00:58:54.642Z,100.00
2023-04-25T01:01:23.510Z,100.00
2023-04-25T01:03:52.777Z,100.00
2023-04-25T01:06:21.911Z,100.00
2023-04-25T01:08:50.541Z,100.00
2023-04-25T01:11:19.323Z,100.00
2023-04-25T01:13:48.030Z,100.00
2023-04-25T01:16:17.986Z,100.00
2023-04-25T01:18:47.526Z,100.00
2023-04-25T01:21:17.583Z,100.00
2023-04-25T01:23:48.166Z,100.00
2023-04-25T01:26:17.528Z,100.00
2023-04-25T01:28:47.118Z,100.00
2023-04-25T01:31:17.689Z,100.00
2023-04-25T01:33:46.540Z,100.00
2023-04-25T01:36:17.377Z,100.00
2023-04-25T01:38:47.356Z,100.00
2023-04-25T01:41:16.291Z,100.00
2023-04-25T01:43:45.056Z,100.00
2023-04-25T01:46:14.680Z,100.00
2023-04-25T01:48:43.453Z,100.00
2023-04-25T01:51:12.628Z,100.00
2023-04-25T01:53:43.417Z,100.00
2023-04-25T01:56:12.098Z,100.00
2023-04-25T01:58:41.683Z,100.00
2023-04-25T02:01:30.397Z,100.00
2023-04-25T02:04:15.784Z,100.00
2023-04-25T02:06:44.592Z,100.00
2023-04-25T02:09:16.150Z,100.00
2023-04-25T02:11:49.646Z,100.00
2023-04-25T02:14:41.392Z,100.00
2023-04-25T02:17:17.198Z,100.00
2023-04-25T02:19:46.933Z,100.00
2023-04-25T02:22:15.834Z,100.00
2023-04-25T02:24:45.598Z,100.00
2023-04-25T02:27:14.714Z,100.00
2023-04-25T02:29:43.410Z,100.00
2023-04-25T02:32:13.380Z,100.00
2023-04-25T02:34:42.946Z,100.00
2023-04-25T02:37:11.484Z,100.00
2023-04-25T02:39:40.084Z,100.00
2023-04-25T02:42:09.780Z,100.00
2023-04-25T02:44:38.336Z,100.00
2023-04-25T02:47:07.711Z,100.00
2023-04-25T02:49:36.301Z,100.00
2023-04-25T02:52:05.330Z,100.00
2023-04-25T02:54:34.044Z,100.00
2023-04-25T02:57:03.441Z,100.00
2023-04-25T02:59:38.946Z,100.00
2023-04-25T03:02:07.759Z,100.00
2023-04-25T03:04:36.485Z,100.00
2023-04-25T03:07:05.893Z,100.00
2023-04-25T03:09:34.717Z,100.00
2023-04-25T03:12:03.159Z,100.00
2023-04-25T03:14:31.999Z,100.00
2023-04-25T03:17:02.577Z,100.00
2023-04-25T03:19:31.480Z,100.00
2023-04-25T03:22:00.213Z,100.00
2023-04-25T03:24:29.239Z,100.00
2023-04-25T03:26:57.920Z,100.00
2023-04-25T03:29:27.593Z,100.00
2023-04-25T03:31:58.052Z,100.00
2023-04-25T03:34:28.319Z,100.00
2023-04-25T03:36:57.351Z,100.00
2023-04-25T03:39:26.385Z,100.00
2023-04-25T03:41:55.944Z,100.00
2023-04-25T03:44:25.454Z,100.00
2023-04-25T03:46:54.290Z,100.00
2023-04-25T03:49:23.370Z,100.00
2023-04-25T03:52:02.298Z,100.00
2023-04-25T03:54:36.283Z,100.00
2023-04-25T03:57:11.383Z,100.00
2023-04-25T03:59:41.850Z,100.00
2023-04-25T04:02:13.674Z,100.00
2023-04-25T04:04:45.345Z,100.00
2023-04-25T04:07:15.794Z,100.00
2023-04-25T04:09:47.671Z,100.00
2023-04-25T04:12:22.349Z,100.00
2023-04-25T04:14:50.793Z,100.00
2023-04-25T04:17:19.012Z,100.00
2023-04-25T04:19:47.517Z,100.00
2023-04-25T04:22:23.351Z,100.00
2023-04-25T04:24:53.860Z,100.00
2023-04-25T04:27:31.389Z,100.00
2023-04-25T04:30:25.218Z,100.00
2023-04-25T04:33:00.225Z,100.00
2023-04-25T04:35:29.030Z,100.00
2023-04-25T04:37:59.002Z,100.00
2023-04-25T04:40:32.243Z,100.00
2023-04-25T04:43:13.361Z,100.00
2023-04-25T04:45:48.721Z,100.00
2023-04-25T04:48:43.726Z,100.00
2023-04-25T04:51:12.330Z,100.00
2023-04-25T04:54:03.496Z,100.00
2023-04-25T04:56:44.676Z,100.00
2023-04-25T04:59:23.545Z,100.00
2023-04-25T05:02:04.335Z,100.00
2023-04-25T05:05:06.022Z,100.00
2023-04-25T05:07:55.133Z,100.00
2023-04-25T05:10:48.225Z,100.00
2023-04-25T05:13:26.396Z,100.00
2023-04-25T05:16:05.958Z,100.00
2023-04-25T05:18:49.795Z,100.00
2023-04-25T05:21:32.351Z,100.00
2023-04-25T05:24:30.668Z,100.00
2023-04-25T05:27:20.960Z,100.00
2023-04-25T05:30:11.012Z,100.00
2023-04-25T05:32:59.201Z,100.00
2023-04-25T05:35:29.803Z,100.00
2023-04-25T05:37:58.278Z,100.00
2023-04-25T05:40:41.921Z,100.00
2023-04-25T05:43:20.304Z,100.00
2023-04-25T05:46:06.156Z,100.00
2023-04-25T05:48:47.995Z,100.00
2023-04-25T05:51:35.143Z,100.00
2023-04-25T05:54:29.813Z,100.00
2023-04-25T05:56:59.498Z,100.00
2023-04-25T05:59:29.536Z,100.00
2023-04-25T06:01:59.056Z,100.00
2023-04-25T06:04:29.715Z,100.00
2023-04-25T06:06:58.685Z,100.00
2023-04-25T06:09:27.325Z,100.00
2023-04-25T06:11:56.522Z,100.00
2023-04-25T06:14:26.690Z,100.00
2023-04-25T06:16:58.014Z,100.00
2023-04-25T06:19:26.942Z,100.00
2023-04-25T06:21:55.647Z,100.00
2023-04-25T06:24:24.573Z,100.00
2023-04-25T06:26:53.797Z,100.00
2023-04-25T06:29:23.007Z,100.00
2023-04-25T06:31:52.564Z,100.00
2023-04-25T06:34:22.962Z,100.00
2023-04-25T06:36:51.484Z,100.00
2023-04-25T06:39:21.135Z,100.00
2023-04-25T06:41:51.794Z,100.00
2023-04-25T06:44:43.326Z,100.00
2023-04-25T06:47:13.692Z,100.00
2023-04-25T06:49:46.177Z,100.00
2023-04-25T06:52:15.088Z,100.00
2023-04-25T06:54:44.362Z,100.00
2023-04-25T06:57:23.574Z,100.00
2023-04-25T06:59:54.372Z,100.00
2023-04-25T07:02:23.571Z,100.00
2023-04-25T07:04:57.342Z,100.00
2023-04-25T07:07:26.268Z,100.00
2023-04-25T07:09:58.024Z,100.00
2023-04-25T07:12:27.140Z,100.00
2023-04-25T07:14:55.891Z,100.00
2023-04-25T07:17:24.977Z,100.00
2023-04-25T07:19:55.833Z,100.00
2023-04-25T07:22:24.669Z,100.00
2023-04-25T07:24:54.367Z,100.00
2023-04-25T07:27:25.482Z,100.00
2023-04-25T07:29:58.564Z,100.00
2023-04-25T07:32:29.030Z,100.00
2023-04-25T07:34:58.962Z,100.00
2023-04-25T07:37:28.356Z,100.00
2023-04-25T07:40:13.534Z,100.00
2023-04-25T07:42:55.521Z,100.00
2023-04-25T07:45:35.832Z,100.00
2023-04-25T07:48:06.709Z,100.00
2023-04-25T07:50:40.620Z,100.00
2023-04-25T07:53:09.978Z,100.00
2023-04-25T07:55:46.453Z,100.00
2023-04-25T07:58:22.336Z,100.00
2023-04-25T08:00:54.985Z,100.00
2023-04-25T08:03:39.566Z,100.00
2023-04-25T08:06:15.326Z,100.00
2023-04-25T08:09:19.706Z,100.00
2023-04-25T08:11:49.187Z,100.00
2023-04-25T08:14:22.629Z,100.00
2023-04-25T08:16:51.615Z,100.00
2023-04-25T08:19:22.632Z,99.75
2023-04-25T08:21:53.040Z,98.56
2023-04-25T08:24:28.752Z,98.19
2023-04-25T08:26:58.066Z,98.71
2023-04-25T08:29:29.604Z,97.05
2023-04-25T08:31:58.620Z,97.86
2023-04-25T08:34:27.481Z,94.84
2023-04-25T08:36:57.570Z,97.08
2023-04-25T08:39:46.215Z,91.43
2023-04-25T08:42:21.372Z,90.45
2023-04-25T08:44:51.212Z,89.61
2023-04-25T08:47:24.070Z,93.90
2023-04-25T08:49:59.618Z,90.02
2023-04-25T08:52:37.548Z,88.55
2023-04-25T08:55:11.846Z,82.90
2023-04-25T08:57:42.299Z,84.08
2023-04-25T09:00:12.171Z,81.93
2023-04-25T09:02:44.998Z,84.38
2023-04-25T09:05:16.527Z,87.21
2023-04-25T09:07:50.482Z,89.91
2023-04-25T09:10:19.899Z,93.41
2023-04-25T09:13:05.849Z,96.44
2023-04-25T09:15:52.295Z,99.74
2023-04-25T09:18:48.349Z,100.00
2023-04-25T09:21:18.046Z,100.00
2023-04-25T09:23:52.793Z,100.00
2023-04-25T09:26:23.538Z,100.00
2023-04-25T09:29:08.957Z,100.00
2023-04-25T09:31:41.637Z,100.00
2023-04-25T09:34:16.631Z,100.00
2023-04-25T09:36:49.953Z,100.00
2023-04-25T09:39:35.819Z,100.00
2023-04-25T09:42:13.477Z,100.00
2023-04-25T09:44:46.777Z,95.03
2023-04-25T09:47:18.994Z,89.97
2023-04-25T09:49:48.021Z,89.04
2023-04-25T09:52:18.474Z,90.16
2023-04-25T09:55:21.727Z,91.59
2023-04-25T09:57:55.770Z,92.77
2023-04-25T10:00:27.613Z,94.33
2023-04-25T10:02:58.109Z,94.22
2023-04-25T10:05:49.282Z,94.20
2023-04-25T10:08:20.605Z,94.71
2023-04-25T10:10:51.957Z,97.04
2023-04-25T10:13:21.843Z,97.55
2023-04-25T10:15:50.993Z,100.00
2023-04-25T10:18:20.900Z,100.00
2023-04-25T10:20:49.274Z,100.00
2023-04-25T10:23:18.874Z,100.00
2023-04-25T10:25:49.223Z,100.00
2023-04-25T10:28:17.680Z,97.35
2023-04-25T10:31:00.656Z,94.20
2023-04-25T10:33:36.525Z,87.44
2023-04-25T10:36:14.258Z,77.41
2023-04-25T10:38:44.418Z,70.78
2023-04-25T10:41:15.703Z,69.04
2023-04-25T10:43:45.969Z,63.94
2023-04-25T10:46:23.789Z,62.26
2023-04-25T10:48:55.035Z,61.31
2023-04-25T10:51:30.730Z,63.52
2023-04-25T10:54:05.128Z,64.75
2023-04-25T10:56:41.143Z,70.57
2023-04-25T10:59:12.525Z,67.74
2023-04-25T11:01:43.475Z,72.69
2023-04-25T11:04:26.569Z,73.65
2023-04-25T11:07:12.905Z,70.91
2023-04-25T11:09:42.982Z,59.36
2023-04-25T11:12:14.233Z,63.38
2023-04-25T11:14:42.959Z,65.21
2023-04-25T11:17:12.612Z,67.67
2023-04-25T11:19:41.545Z,64.54
2023-04-25T11:22:12.192Z,63.79
2023-04-25T11:24:41.006Z,56.08
2023-04-25T11:27:10.521Z,60.07
2023-04-25T11:29:40.459Z,63.50
2023-04-25T11:32:09.868Z,57.44
2023-04-25T11:34:38.520Z,53.55
2023-04-25T11:37:07.776Z,51.90
2023-04-25T11:39:36.688Z,49.78
2023-04-25T11:42:13.540Z,56.61
2023-04-25T11:44:44.234Z,57.00
2023-04-25T11:47:12.917Z,60.88
2023-04-25T11:49:42.528Z,62.78
2023-04-25T11:52:11.364Z,61.50
2023-04-25T11:54:40.986Z,58.56
2023-04-25T11:57:10.168Z,61.18
2023-04-25T11:59:39.088Z,64.48
2023-04-25T12:02:09.014Z,67.57
2023-04-25T12:04:37.978Z,69.09
2023-04-25T12:07:06.768Z,66.63
2023-04-25T12:09:36.499Z,68.95
2023-04-25T12:12:05.723Z,70.71
2023-04-25T12:14:36.783Z,69.76
2023-04-25T12:17:09.281Z,68.87
2023-04-25T12:19:42.116Z,68.07
2023-04-25T12:22:23.389Z,66.89
2023-04-25T12:24:54.333Z,67.34
2023-04-25T12:27:22.807Z,67.95
2023-04-25T12:29:56.732Z,67.38
2023-04-25T12:32:27.346Z,71.75
2023-04-25T12:34:56.086Z,80.07
2023-04-25T12:37:24.931Z,79.73
2023-04-25T12:39:53.618Z,79.20
2023-04-25T12:42:22.335Z,75.18
2023-04-25T12:44:50.617Z,72.06
2023-04-25T12:47:19.319Z,67.08
2023-04-25T12:49:49.759Z,69.92
2023-04-25T12:52:17.951Z,67.10
2023-04-25T12:54:46.748Z,65.59
2023-04-25T12:57:15.416Z,69.00
2023-04-25T12:59:44.278Z,67.11
2023-04-25T13:02:13.681Z,67.40
2023-04-25T13:04:42.405Z,67.27
2023-04-25T13:07:12.205Z,64.43
2023-04-25T13:09:40.808Z,61.47
2023-04-25T13:12:09.619Z,60.15
2023-04-25T13:14:38.261Z,61.19
2023-04-25T13:17:07.781Z,60.82
2023-04-25T13:19:36.957Z,65.76
2023-04-25T13:22:05.814Z,66.85
2023-04-25T13:24:35.587Z,66.94
2023-04-25T13:27:04.320Z,68.57
2023-04-25T13:29:35.745Z,65.98
2023-04-25T13:32:04.890Z,64.01
2023-04-25T13:34:33.222Z,63.93
2023-04-25T13:37:01.564Z,62.75
2023-04-25T13:39:30.153Z,63.56
2023-04-25T13:41:59.949Z,63.94
2023-04-25T13:44:28.679Z,62.78
2023-04-25T13:46:58.121Z,63.40
2023-04-25T13:49:26.742Z,65.47
2023-04-25T13:51:55.071Z,63.61
2023-04-25T13:54:24.430Z,60.90
2023-04-25T13:56:53.928Z,60.89
2023-04-25T13:59:24.762Z,57.79
2023-04-25T14:01:53.606Z,56.82
2023-04-25T14:04:22.383Z,57.88
2023-04-25T14:06:51.763Z,59.98
2023-04-25T14:09:21.960Z,56.31
2023-04-25T14:11:50.596Z,52.80
2023-04-25T14:14:18.883Z,52.37
2023-04-25T14:16:50.017Z,55.73
2023-04-25T14:19:20.322Z,57.80
2023-04-25T14:21:50.809Z,57.87
2023-04-25T14:24:19.358Z,58.01
2023-04-25T14:26:48.033Z,60.28
2023-04-25T14:29:16.653Z,60.54
2023-04-25T14:31:46.202Z,61.78
2023-04-25T14:34:16.316Z,62.64
2023-04-25T14:36:44.975Z,63.57
2023-04-25T14:39:15.117Z,65.56
2023-04-25T14:41:43.707Z,65.20
2023-04-25T14:44:12.398Z,63.92
2023-04-25T14:46:41.446Z,64.98
2023-04-25T14:49:10.090Z,67.29
2023-04-25T14:51:40.116Z,64.53
2023-04-25T14:54:08.773Z,66.54
2023-04-25T14:56:37.477Z,65.24
2023-04-25T14:59:06.767Z,66.47
2023-04-25T15:01:35.760Z,65.89
2023-04-25T15:04:05.466Z,66.52
2023-04-25T15:06:34.272Z,67.24
2023-04-25T15:09:04.093Z,65.93
2023-04-25T15:11:32.827Z,65.28
2023-04-25T15:14:01.512Z,66.86
2023-04-25T15:16:31.886Z,67.58
2023-04-25T15:19:00.222Z,65.98
2023-04-25T15:21:28.839Z,67.06
2023-04-25T15:23:57.549Z,66.88
2023-04-25T15:26:27.254Z,67.00
2023-04-25T15:28:56.323Z,67.14
2023-04-25T15:31:25.238Z,66.99
2023-04-25T15:33:54.259Z,67.04
2023-04-25T15:36:22.821Z,66.68
2023-04-25T15:38:51.238Z,67.31
2023-04-25T15:41:20.299Z,66.60
2023-04-25T15:43:50.948Z,64.75
2023-04-25T15:46:19.924Z,63.76
2023-04-25T15:48:48.497Z,62.69
2023-04-25T15:51:17.334Z,63.84
2023-04-25T15:53:47.191Z,62.82
2023-04-25T15:56:15.919Z,62.40
2023-04-25T15:58:44.544Z,62.76
2023-04-25T16:01:15.047Z,61.48
2023-04-25T16:03:44.064Z,59.57
2023-04-25T16:06:12.774Z,60.85
2023-04-25T16:08:41.387Z,61.14
2023-04-25T16:11:10.152Z,63.63
2023-04-25T16:13:38.828Z,65.50
2023-04-25T16:16:08.222Z,65.73
2023-04-25T16:18:38.299Z,66.47
2023-04-25T16:21:09.073Z,66.57
2023-04-25T16:23:37.871Z,68.90
2023-04-25T16:26:06.192Z,68.63
2023-04-25T16:28:34.866Z,68.41
2023-04-25T16:31:03.645Z,68.54
2023-04-25T16:33:32.335Z,68.58
2023-04-25T16:36:02.134Z,67.87
2023-04-25T16:38:30.799Z,69.14
2023-04-25T16:40:59.495Z,69.17
2023-04-25T16:43:28.382Z,68.59
2023-04-25T16:45:56.969Z,66.83
2023-04-25T16:48:26.264Z,67.26
2023-04-25T16:50:55.620Z,67.20
2023-04-25T16:53:25.694Z,67.19
2023-04-25T16:55:54.378Z,67.15
2023-04-25T16:58:23.389Z,69.05
2023-04-25T17:00:52.455Z,69.61
2023-04-25T17:03:22.081Z,69.52
2023-04-25T17:05:54.863Z,70.11
2023-04-25T17:08:24.562Z,69.97
2023-04-25T17:10:53.014Z,71.07
2023-04-25T17:13:21.725Z,69.91
2023-04-25T17:15:59.440Z,71.06
2023-04-25T17:18:28.263Z,71.23
2023-04-25T17:20:57.330Z,71.41
2023-04-25T17:23:27.008Z,72.31
2023-04-25T17:25:56.158Z,72.69
2023-04-25T17:28:24.806Z,72.61
2023-04-25T17:30:53.963Z,73.41
2023-04-25T17:33:26.927Z,72.46
2023-04-25T17:35:58.876Z,72.63
2023-04-25T17:38:28.927Z,73.61
2023-04-25T17:40:57.625Z,74.11
2023-04-25T17:43:27.705Z,73.72
2023-04-25T17:45:57.344Z,73.82
2023-04-25T17:48:26.896Z,75.07
2023-04-25T17:50:58.730Z,75.45
2023-04-25T17:53:28.843Z,75.34
2023-04-25T17:55:57.619Z,75.61
2023-04-25T17:58:26.123Z,77.25
2023-04-25T18:00:54.990Z,76.96
2023-04-25T18:03:23.848Z,79.25
2023-04-25T18:05:52.644Z,82.00
2023-04-25T18:08:22.612Z,83.77
2023-04-25T18:10:52.695Z,85.76
2023-04-25T18:13:21.267Z,86.05
2023-04-25T18:15:51.664Z,87.30
2023-04-25T18:18:25.365Z,88.57
2023-04-25T18:20:56.385Z,89.79
2023-04-25T18:23:25.353Z,90.21
2023-04-25T18:25:55.119Z,90.75
2023-04-25T18:28:23.698Z,90.90
2023-04-25T18:30:52.326Z,91.11
2023-04-25T18:33:21.510Z,92.08
2023-04-25T18:35:58.660Z,92.47
2023-04-25T18:41:15.621Z,94.78
2023-04-25T18:43:50.503Z,96.21
2023-04-25T18:46:22.492Z,95.88
2023-04-25T18:48:53.502Z,98.16
2023-04-25T18:51:24.677Z,98.90
2023-04-25T18:53:54.709Z,99.53
2023-04-25T18:56:25.968Z,100.00
2023-04-25T18:58:55.473Z,100.00
2023-04-25T19:01:25.707Z,100.00
2023-04-25T19:03:56.624Z,100.00
2023-04-25T19:06:28.983Z,100.00
2023-04-25T19:08:58.492Z,100.00
2023-04-25T19:11:28.505Z,100.00
2023-04-25T19:13:57.136Z,100.00
2023-04-25T19:16:27.759Z,100.00
2023-04-25T19:18:58.058Z,100.00
2023-04-25T19:21:27.170Z,100.00
2023-04-25T19:23:56.520Z,100.00
2023-04-25T19:26:25.330Z,100.00
2023-04-25T19:29:08.204Z,100.00
2023-04-25T19:31:38.258Z,100.00
2023-04-25T19:34:08.991Z,100.00
2023-04-25T19:36:39.749Z,100.00
2023-04-25T19:39:09.297Z,100.00
2023-04-25T19:41:39.538Z,100.00
2023-04-25T19:44:10.714Z,100.00
2023-04-25T19:46:39.725Z,100.00
2023-04-25T19:49:09.489Z,100.00
2023-04-25T19:51:38.361Z,100.00
2023-04-25T19:54:07.097Z,100.00
2023-04-25T19:56:35.877Z,100.00
2023-04-25T19:59:04.141Z,100.00
2023-04-25T20:01:33.779Z,100.00
2023-04-25T20:04:02.438Z,100.00
2023-04-25T20:06:30.962Z,100.00
2023-04-25T20:08:59.467Z,100.00
2023-04-25T20:11:29.480Z,100.00
2023-04-25T20:13:58.054Z,100.00
2023-04-25T20:16:26.885Z,100.00
2023-04-25T20:18:58.567Z,100.00
2023-04-25T20:21:27.442Z,100.00
2023-04-25T20:23:56.343Z,100.00
2023-04-25T20:26:25.859Z,100.00
2023-04-25T20:28:54.818Z,100.00
2023-04-25T20:31:23.702Z,100.00
2023-04-25T20:33:52.337Z,100.00
2023-04-25T20:36:23.379Z,100.00
2023-04-25T20:38:52.267Z,100.00
2023-04-25T20:41:21.331Z,100.00
2023-04-25T20:43:52.214Z,100.00
2023-04-25T20:46:21.424Z,100.00
2023-04-25T20:48:52.789Z,100.00
2023-04-25T20:51:23.123Z,100.00
2023-04-25T20:53:52.125Z,100.00
2023-04-25T20:56:20.854Z,100.00
2023-04-25T20:58:49.927Z,100.00
2023-04-25T21:01:20.041Z,100.00
2023-04-25T21:03:50.078Z,100.00
2023-04-25T21:06:19.130Z,100.00
2023-04-25T21:08:49.409Z,100.00
2023-04-25T21:11:19.513Z,100.00
2023-04-25T21:13:48.225Z,100.00
2023-04-25T21:16:16.875Z,100.00
2023-04-25T21:18:45.504Z,100.00
2023-04-25T21:21:14.128Z,100.00
2023-04-25T21:23:43.909Z,100.00
2023-04-25T21:26:13.692Z,100.00
2023-04-25T21:28:42.303Z,100.00
2023-04-25T21:31:11.085Z,100.00
2023-04-25T21:33:40.010Z,100.00
2023-04-25T21:36:08.965Z,100.00
2023-04-25T21:38:37.985Z,100.00
2023-04-25T21:41:06.846Z,100.00
2023-04-25T21:43:37.572Z,100.00
2023-04-25T21:46:22.492Z,100.00
2023-04-25T21:48:52.336Z,100.00
2023-04-25T21:51:21.143Z,100.00
2023-04-25T21:53:49.800Z,100.00
2023-04-25T21:56:18.407Z,100.00
2023-04-25T21:58:48.867Z,100.00
2023-04-25T22:01:17.546Z,100.00
2023-04-25T22:03:46.079Z,100.00
2023-04-25T22:06:14.779Z,100.00
2023-04-25T22:08:44.111Z,100.00
2023-04-25T22:11:13.695Z,100.00
2023-04-25T22:13:42.433Z,100.00
2023-04-25T22:16:12.380Z,100.00
2023-04-25T22:18:42.293Z,100.00
2023-04-25T22:21:11.126Z,100.00
2023-04-25T22:23:39.887Z,100.00
2023-04-25T22:26:09.973Z,100.00
2023-04-25T22:28:39.815Z,100.00
2023-04-25T22:31:08.611Z,100.00
2023-04-25T22:33:38.653Z,100.00
2023-04-25T22:36:07.721Z,100.00
2023-04-25T22:38:36.008Z,100.00
2023-04-25T22:41:04.667Z,100.00
2023-04-25T22:43:32.973Z,100.00
2023-04-25T22:46:03.420Z,100.00
2023-04-25T22:48:32.121Z,100.00
2023-04-25T22:51:06.216Z,100.00
2023-04-25T22:53:37.493Z,100.00
2023-04-25T22:56:06.235Z,100.00
2023-04-25T22:58:37.222Z,100.00
2023-04-25T23:01:06.905Z,100.00
2023-04-25T23:03:35.748Z,100.00
2023-04-25T23:06:06.154Z,100.00
2023-04-25T23:08:35.293Z,100.00
2023-04-25T23:11:07.974Z,100.00
2023-04-25T23:13:37.380Z,100.00
2023-04-25T23:16:10.753Z,100.00
2023-04-25T23:18:40.472Z,100.00
2023-04-25T23:21:11.532Z,100.00
2023-04-25T23:23:40.708Z,100.00
2023-04-25T23:26:09.857Z,100.00
2023-04-25T23:28:41.666Z,100.00
2023-04-25T23:31:11.707Z,100.00
2023-04-25T23:33:40.494Z,100.00
2023-04-25T23:36:19.861Z,100.00
2023-04-25T23:38:48.655Z,100.00
2023-04-25T23:41:18.142Z,100.00
2023-04-25T23:43:46.836Z,100.00
2023-04-25T23:46:15.671Z,100.00
2023-04-25T23:48:44.309Z,100.00
2023-04-25T23:51:14.003Z,100.00
2023-04-25T23:53:42.647Z,100.00
2023-04-25T23:56:11.388Z,100.00
2023-04-25T23:58:40.075Z,100.00
